Time;durP1;ratioP1;P1;durP2;ratioP2;P2;SDS_P1;SDS_P2;PMS_P1;PMS_P2;Temp;Humidity;BMP_temperature;BMP_pressure;BME280_temperature;BME280_humidity;BME280_pressure;Samples;Min_cycle;Max_cycle;Signal;HPM_P1;HPM_P2
2021/07/07 00:01:04;;;;;;;2.63;1.13;;;17.80;84.90;;;;;;5034732;28;20176;-78
2021/07/07 00:03:30;;;;;;;2.17;0.93;;;17.80;54.20;;;;;;5034539;28;20469;-77
2021/07/07 00:05:56;;;;;;;2.00;0.37;;;17.80;8.80;;;;;;5034108;28;20172;-78
2021/07/07 00:08:21;;;;;;;2.50;0.30;;;17.80;40.10;;;;;;5034570;28;20663;-78
2021/07/07 00:10:47;;;;;;;2.53;0.30;;;17.80;1.00;;;;;;5034424;28;20665;-78
2021/07/07 00:13:13;;;;;;;2.33;0.40;;;17.80;1.00;;;;;;5033991;28;20185;-78
2021/07/07 00:15:39;;;;;;;10.23;0.70;;;17.80;1.00;;;;;;5034274;28;20207;-78
2021/07/07 00:18:08;;;;;;;2.30;0.83;;;17.80;1.00;;;;;;5034331;28;20184;-78
2021/07/07 00:20:38;;;;;;;3.13;0.50;;;17.80;1.00;;;;;;5034276;28;20425;-78
2021/07/07 00:23:04;;;;;;;3.40;0.50;;;17.70;1.00;;;;;;5034216;28;20835;-78
2021/07/07 00:25:30;;;;;;;3.03;0.40;;;17.50;1.00;;;;;;5032923;28;20438;-78
2021/07/07 00:27:55;;;;;;;4.33;0.40;;;17.50;1.00;;;;;;5033891;28;20224;-78
2021/07/07 00:30:21;;;;;;;4.97;0.80;;;17.50;1.00;;;;;;5033773;28;20597;-78
2021/07/07 00:32:47;;;;;;;1.27;0.30;;;17.40;33.70;;;;;;5034110;28;20262;-78
2021/07/07 00:35:13;;;;;;;2.10;0.70;;;17.40;47.80;;;;;;5034031;28;20181;-78
2021/07/07 00:37:39;;;;;;;1.30;0.30;;;17.30;71.80;;;;;;5033968;28;20188;-78
2021/07/07 00:40:05;;;;;;;2.50;0.73;;;17.20;77.50;;;;;;5032589;28;20727;-78
2021/07/07 00:42:31;;;;;;;0.73;0.33;;;17.30;35.40;;;;;;5033701;28;20478;-78
2021/07/07 00:44:57;;;;;;;3.40;1.23;;;17.20;72.60;;;;;;5033466;28;20871;-78
2021/07/07 00:47:22;;;;;;;2.33;1.00;;;17.20;48.00;;;;;;5033811;28;20202;-78
2021/07/07 00:49:48;;;;;;;2.83;0.40;;;17.20;65.10;;;;;;5033769;28;20181;-78
2021/07/07 00:52:14;;;;;;;4.80;1.23;;;17.10;87.70;;;;;;5033695;28;20252;-78
2021/07/07 00:54:40;;;;;;;2.67;0.70;;;17.00;99.90;;;;;;5033617;28;20179;-78
2021/07/07 00:57:06;;;;;;;4.70;0.70;;;17.00;99.90;;;;;;5033756;28;20423;-78
2021/07/07 00:59:32;;;;;;;3.20;0.80;;;16.90;95.60;;;;;;5033204;28;20946;-78
2021/07/07 01:02:00;;;;;;;6.97;0.43;;;17.00;99.90;;;;;;5033607;28;20175;-78
2021/07/07 01:04:25;;;;;;;3.10;0.80;;;17.00;99.90;;;;;;5032134;28;20478;-77
2021/07/07 01:06:51;;;;;;;6.40;1.20;;;16.90;99.90;;;;;;5033444;28;20476;-78
2021/07/07 01:09:16;;;;;;;2.70;0.63;;;16.90;99.90;;;;;;5032129;28;20203;-77
2021/07/07 01:11:42;;;;;;;3.60;0.43;;;16.80;99.90;;;;;;5033411;28;20274;-77
2021/07/07 01:14:08;;;;;;;2.47;0.73;;;16.80;99.90;;;;;;5033051;28;20259;-78
2021/07/07 01:16:34;;;;;;;2.80;0.40;;;16.70;99.90;;;;;;5032577;28;20818;-77
2021/07/07 01:19:00;;;;;;;1.87;0.57;;;16.60;99.90;;;;;;5033276;28;20539;-78
2021/07/07 01:21:26;;;;;;;1.20;0.60;;;16.70;99.90;;;;;;5033294;28;20549;-78
2021/07/07 01:23:52;;;;;;;2.20;0.60;;;16.50;99.90;;;;;;5033084;28;20478;-78
2021/07/07 01:26:17;;;;;;;3.60;0.47;;;16.50;99.90;;;;;;5033137;28;20421;-78
2021/07/07 01:28:43;;;;;;;1.93;0.70;;;16.40;99.90;;;;;;5032658;28;20284;-78
2021/07/07 01:31:09;;;;;;;4.30;0.80;;;16.30;99.90;;;;;;5033099;28;20172;-78
2021/07/07 01:33:35;;;;;;;2.77;0.50;;;16.30;99.90;;;;;;5033105;28;20179;-78
2021/07/07 01:36:00;;;;;;;2.50;0.70;;;16.30;99.90;;;;;;5033083;28;20199;-78
2021/07/07 01:38:26;;;;;;;1.80;0.60;;;16.30;99.90;;;;;;5032963;28;20254;-78
2021/07/07 01:40:56;;;;;;;2.83;0.70;;;16.20;99.90;;;;;;5033026;28;20171;-77
2021/07/07 01:43:21;;;;;;;1.03;0.40;;;16.10;99.90;;;;;;5032505;28;20203;-77
2021/07/07 01:45:47;;;;;;;3.50;0.40;;;16.20;99.90;;;;;;5032933;28;20441;-77
2021/07/07 01:48:13;;;;;;;4.40;0.73;;;16.20;99.90;;;;;;5032958;28;20206;-77
2021/07/07 01:50:38;;;;;;;2.20;0.70;;;16.10;99.90;;;;;;5032932;28;20229;-77
2021/07/07 01:53:04;;;;;;;1.47;0.50;;;16.00;99.90;;;;;;5032900;28;20176;-78
2021/07/07 01:55:30;;;;;;;2.00;0.60;;;16.00;99.90;;;;;;5032874;28;20174;-78
2021/07/07 01:57:55;;;;;;;3.27;0.60;;;15.90;99.90;;;;;;5032566;28;20198;-77
2021/07/07 02:00:28;;;;;;;3.47;1.07;;;15.60;99.90;;;;;;5032884;28;20569;-77
2021/07/07 02:02:55;;;;;;;1.77;0.77;;;15.40;99.90;;;;;;5032725;28;20199;-78
2021/07/07 02:05:28;;;;;;;1.33;0.50;;;15.20;99.90;;;;;;5032705;28;20419;-78
2021/07/07 02:07:53;;;;;;;2.60;0.60;;;15.10;99.90;;;;;;5032754;28;20462;-77
2021/07/07 02:10:19;;;;;;;2.30;0.53;;;15.10;99.90;;;;;;5031639;28;20421;-77
2021/07/07 02:12:46;;;;;;;2.30;0.60;;;15.00;99.90;;;;;;5032434;28;20626;-77
2021/07/07 02:15:24;;;;;;;2.83;0.50;;;14.90;99.90;;;;;;5032711;28;20182;-77
2021/07/07 02:17:50;;;;;;;1.60;0.43;;;14.90;99.90;;;;;;5032815;28;20403;-77
2021/07/07 02:20:19;;;;;;;4.20;0.73;;;14.80;99.90;;;;;;5032719;28;20421;-78
2021/07/07 02:22:46;;;;;;;2.00;0.50;;;14.80;99.90;;;;;;5032479;28;20419;-78
2021/07/07 02:25:15;;;;;;;5.40;0.77;;;14.70;99.90;;;;;;5032547;28;20427;-78
2021/07/07 02:27:41;;;;;;;4.13;0.77;;;14.70;99.90;;;;;;5033137;28;20461;-77
2021/07/07 02:30:10;;;;;;;2.17;0.57;;;14.80;99.90;;;;;;5036271;28;20779;-77
2021/07/07 02:32:36;;;;;;;3.23;0.60;;;14.80;99.90;;;;;;5035825;28;20417;-78
2021/07/07 02:35:05;;;;;;;2.60;0.63;;;14.70;99.90;;;;;;5036260;28;20421;-78
2021/07/07 02:37:30;;;;;;;1.43;0.80;;;14.70;99.90;;;;;;5036156;28;20420;-78
2021/07/07 02:39:56;;;;;;;1.00;0.70;;;14.60;99.90;;;;;;5036171;28;20913;-78
2021/07/07 02:42:22;;;;;;;4.07;1.20;;;14.60;99.90;;;;;;5036390;28;20165;-78
2021/07/07 02:44:47;;;;;;;1.60;0.60;;;14.60;99.90;;;;;;5035717;28;20204;-78
2021/07/07 02:47:13;;;;;;;2.37;0.90;;;14.60;99.90;;;;;;5035795;28;20188;-77
2021/07/07 02:49:38;;;;;;;3.00;1.00;;;14.50;99.90;;;;;;5034791;28;20174;-77
2021/07/07 02:52:04;;;;;;;2.30;0.90;;;14.60;99.90;;;;;;5035916;28;20173;-78
2021/07/07 02:54:30;;;;;;;2.13;0.80;;;14.50;99.90;;;;;;5018998;28;20182;-77
2021/07/07 02:56:55;;;;;;;1.93;0.67;;;14.50;99.90;;;;;;5030607;28;20180;-78
2021/07/07 02:59:21;;;;;;;2.13;0.43;;;14.50;99.90;;;;;;5035062;28;20174;-77
2021/07/07 03:01:47;;;;;;;3.07;0.47;;;14.40;99.90;;;;;;5035430;28;20189;-78
2021/07/07 03:04:12;;;;;;;3.50;0.50;;;14.40;99.90;;;;;;5035191;28;20222;-78
2021/07/07 03:06:38;;;;;;;3.43;1.03;;;14.40;99.90;;;;;;5035259;28;20166;-78
2021/07/07 03:09:04;;;;;;;3.50;0.50;;;14.50;99.90;;;;;;5035211;28;20224;-78
2021/07/07 03:11:30;;;;;;;2.10;0.20;;;14.50;99.90;;;;;;5035028;28;20198;-77
2021/07/07 03:13:57;;;;;;;4.40;0.70;;;14.50;99.90;;;;;;5025341;28;20465;-77
2021/07/07 03:16:22;;;;;;;3.90;0.40;;;14.50;99.90;;;;;;5034329;28;20168;-77
2021/07/07 03:18:48;;;;;;;2.80;1.07;;;14.50;99.90;;;;;;5024821;28;20525;-77
2021/07/07 03:21:14;;;;;;;1.63;0.33;;;14.50;99.90;;;;;;5034837;28;20175;-77
2021/07/07 03:23:39;;;;;;;3.27;1.20;;;14.50;99.90;;;;;;5033477;28;20190;-77
2021/07/07 03:26:05;;;;;;;2.90;0.60;;;14.50;99.90;;;;;;5034040;28;20167;-78
2021/07/07 03:28:30;;;;;;;2.40;0.50;;;14.40;99.90;;;;;;5033654;28;20324;-78
2021/07/07 03:30:56;;;;;;;2.80;0.57;;;14.40;99.90;;;;;;5033641;28;20174;-77
2021/07/07 03:33:22;;;;;;;2.87;0.70;;;14.50;99.90;;;;;;5034928;28;20263;-77
2021/07/07 03:35:48;;;;;;;2.00;0.70;;;14.50;99.90;;;;;;5034985;28;20658;-77
2021/07/07 03:38:14;;;;;;;2.20;0.33;;;14.40;99.90;;;;;;5033587;28;20436;-78
2021/07/07 03:40:41;;;;;;;1.37;0.67;;;14.40;99.90;;;;;;5032818;28;20183;-78
2021/07/07 03:43:07;;;;;;;4.97;0.57;;;14.40;99.90;;;;;;5034703;28;20408;-77
2021/07/07 03:45:32;;;;;;;2.10;0.60;;;14.40;99.90;;;;;;5035026;28;20421;-77
2021/07/07 03:47:58;;;;;;;1.67;0.50;;;14.60;99.90;;;;;;5035004;28;20423;-77
2021/07/07 03:50:24;;;;;;;2.00;1.00;;;14.60;99.90;;;;;;5034941;28;20174;-77
2021/07/07 03:52:53;;;;;;;2.43;0.80;;;14.70;99.90;;;;;;5034715;28;20179;-77
2021/07/07 03:55:20;;;;;;;1.97;0.90;;;14.60;99.90;;;;;;5034797;28;20421;-78
2021/07/07 03:57:46;;;;;;;4.63;0.20;;;14.60;99.90;;;;;;5033148;28;20429;-78
2021/07/07 04:00:15;;;;;;;4.40;1.00;;;14.60;99.90;;;;;;5034677;28;20428;-78
2021/07/07 04:02:41;;;;;;;3.37;0.73;;;14.80;99.90;;;;;;5034587;28;20424;-78
2021/07/07 04:05:08;;;;;;;1.70;0.80;;;14.90;99.90;;;;;;5034546;28;20424;-78
2021/07/07 04:07:34;;;;;;;4.10;0.60;;;15.00;99.90;;;;;;5034592;28;20416;-78
2021/07/07 04:10:00;;;;;;;1.73;0.70;;;15.10;99.90;;;;;;5034585;28;20410;-78
2021/07/07 04:12:25;;;;;;;2.47;0.53;;;15.20;99.90;;;;;;5034125;28;20177;-79
2021/07/07 04:14:51;;;;;;;3.00;0.70;;;15.20;99.90;;;;;;5034424;28;20210;-79
2021/07/07 04:17:16;;;;;;;1.83;0.40;;;15.40;99.90;;;;;;5034590;28;20170;-82
2021/07/07 04:19:42;;;;;;;2.10;0.77;;;15.40;99.90;;;;;;5034265;28;20660;-82
2021/07/07 04:22:07;;;;;;;2.87;0.80;;;15.50;99.90;;;;;;5034289;28;20169;-81
2021/07/07 04:24:33;;;;;;;4.87;0.83;;;15.50;99.90;;;;;;5034204;28;20652;-83
2021/07/07 04:26:59;;;;;;;3.07;0.67;;;15.50;99.90;;;;;;5034015;28;20306;-82
2021/07/07 04:29:24;;;;;;;1.83;0.90;;;15.40;99.90;;;;;;5033802;28;20183;-81
2021/07/07 04:31:53;;;;;;;3.70;1.00;;;15.50;99.90;;;;;;5034210;28;20189;-81
2021/07/07 04:34:19;;;;;;;4.03;0.87;;;15.60;99.90;;;;;;5033973;28;20252;-82
2021/07/07 04:36:45;;;;;;;2.47;0.80;;;15.60;99.90;;;;;;5033937;28;20418;-81
2021/07/07 04:39:10;;;;;;;3.10;0.63;;;15.70;99.90;;;;;;5032758;28;20211;-81
2021/07/07 04:41:36;;;;;;;4.47;0.50;;;15.70;99.90;;;;;;5033953;28;20647;-81
2021/07/07 04:44:02;;;;;;;2.53;0.77;;;15.70;99.90;;;;;;5033539;28;20284;-82
2021/07/07 04:46:28;;;;;;;1.70;0.80;;;15.70;99.90;;;;;;5033834;28;20224;-82
2021/07/07 04:48:54;;;;;;;4.00;0.83;;;15.80;99.90;;;;;;5033816;28;20413;-81
2021/07/07 04:51:19;;;;;;;1.03;0.40;;;15.80;99.90;;;;;;5033556;28;20178;-81
2021/07/07 04:53:45;;;;;;;2.90;0.60;;;15.80;99.90;;;;;;5033666;28;20198;-83
2021/07/07 04:56:10;;;;;;;3.03;0.50;;;15.90;99.90;;;;;;5032579;28;20658;-82
2021/07/07 04:58:37;;;;;;;3.07;0.60;;;15.90;99.90;;;;;;5033361;28;20171;-79
2021/07/07 05:01:03;;;;;;;4.73;0.63;;;15.90;99.90;;;;;;5033527;28;20551;-81
2021/07/07 05:03:28;;;;;;;2.73;0.60;;;15.90;99.90;;;;;;5033461;28;20418;-80
2021/07/07 05:05:54;;;;;;;3.00;0.70;;;15.90;99.90;;;;;;5033398;28;20195;-80
2021/07/07 05:08:19;;;;;;;2.60;0.60;;;15.90;99.90;;;;;;5033411;28;20254;-81
2021/07/07 05:10:48;;;;;;;1.47;0.70;;;15.90;99.90;;;;;;5033379;28;20171;-80
2021/07/07 05:13:14;;;;;;;1.70;0.67;;;15.90;99.90;;;;;;5032994;28;20211;-78
2021/07/07 05:15:39;;;;;;;1.53;0.50;;;16.00;99.90;;;;;;5033343;28;20815;-79
2021/07/07 05:18:08;;;;;;;3.43;0.70;;;16.00;99.90;;;;;;5033312;28;20457;-79
2021/07/07 05:20:34;;;;;;;2.67;0.30;;;16.10;99.90;;;;;;5033368;28;20172;-81
2021/07/07 05:23:06;;;;;;;3.17;1.17;;;16.20;99.90;;;;;;5033183;28;20938;-80
2021/07/07 05:25:32;;;;;;;3.23;0.53;;;16.30;99.90;;;;;;5033249;28;20667;-78
2021/07/07 05:27:58;;;;;;;4.43;0.47;;;16.30;99.90;;;;;;5031406;28;20459;-79
2021/07/07 05:30:25;;;;;;;2.40;0.83;;;16.30;99.90;;;;;;5031817;28;20437;-80
2021/07/07 05:32:51;;;;;;;1.70;0.47;;;16.30;99.90;;;;;;5032923;28;20171;-81
2021/07/07 05:35:16;;;;;;;7.27;0.90;;;16.40;99.90;;;;;;5033088;28;20426;-78
2021/07/07 05:37:42;;;;;;;4.60;1.07;;;16.40;99.90;;;;;;5033109;28;20430;-79
2021/07/07 05:40:08;;;;;;;3.67;0.70;;;16.30;99.90;;;;;;5033057;28;20174;-78
2021/07/07 05:42:34;;;;;;;0.93;0.40;;;16.40;99.90;;;;;;5032765;28;20251;-78
2021/07/07 05:44:59;;;;;;;4.67;0.43;;;16.40;99.90;;;;;;5033055;28;20573;-79
2021/07/07 05:47:25;;;;;;;5.93;0.70;;;16.50;99.90;;;;;;5032923;28;20636;-78
2021/07/07 05:49:56;;;;;;;4.23;1.00;;;16.60;99.90;;;;;;5032913;28;20254;-79
2021/07/07 05:52:22;;;;;;;2.37;1.00;;;16.60;99.90;;;;;;5033031;28;20255;-78
2021/07/07 05:54:47;;;;;;;5.13;0.97;;;16.60;99.90;;;;;;5032865;28;20476;-78
2021/07/07 05:57:13;;;;;;;1.60;0.60;;;16.70;99.90;;;;;;5032572;28;20406;-78
2021/07/07 05:59:38;;;;;;;2.60;0.47;;;16.80;99.90;;;;;;5032895;28;20569;-77
2021/07/07 06:02:04;;;;;;;2.43;0.60;;;16.80;99.90;;;;;;5032761;28;20180;-78
2021/07/07 06:04:30;;;;;;;2.33;0.43;;;16.80;99.90;;;;;;5035558;28;20179;-77
2021/07/07 06:06:55;;;;;;;1.73;0.50;;;16.90;99.90;;;;;;5036801;28;20177;-78
2021/07/07 06:09:21;;;;;;;2.20;0.83;;;17.00;99.90;;;;;;5036948;28;20242;-77
2021/07/07 06:11:46;;;;;;;3.90;0.50;;;17.10;99.90;;;;;;5036702;28;20222;-78
2021/07/07 06:14:12;;;;;;;3.63;1.10;;;17.20;99.90;;;;;;5036303;28;20220;-77
2021/07/07 06:16:38;;;;;;;3.13;0.60;;;17.10;99.90;;;;;;5035396;28;20201;-78
2021/07/07 06:19:03;;;;;;;3.47;0.50;;;17.30;99.90;;;;;;5036595;28;20630;-78
2021/07/07 06:21:31;;;;;;;1.73;0.97;;;17.30;99.90;;;;;;5036373;28;20419;-78
2021/07/07 06:23:57;;;;;;;3.17;0.97;;;17.30;99.90;;;;;;5036483;28;20185;-78
2021/07/07 06:26:27;;;;;;;4.53;0.70;;;17.20;99.90;;;;;;5035230;28;20468;-77
2021/07/07 06:28:53;;;;;;;3.47;0.80;;;17.40;99.90;;;;;;5036020;28;20697;-78
2021/07/07 06:31:19;;;;;;;6.00;0.77;;;17.90;99.90;;;;;;5036303;28;20495;-77
2021/07/07 06:33:44;;;;;;;1.70;0.63;;;17.90;99.90;;;;;;5036248;28;20238;-78
2021/07/07 06:36:10;;;;;;;1.43;0.50;;;17.90;99.90;;;;;;5036283;28;20227;-77
2021/07/07 06:38:35;;;;;;;1.77;0.70;;;17.70;99.90;;;;;;5036309;28;20175;-78
2021/07/07 06:41:01;;;;;;;3.67;0.67;;;17.60;99.90;;;;;;5036190;28;20258;-78
2021/07/07 06:43:26;;;;;;;2.10;1.60;;;17.50;99.90;;;;;;5034491;28;20630;-79
2021/07/07 06:45:52;;;;;;;3.40;0.57;;;17.60;99.90;;;;;;5036017;28;20183;-78
2021/07/07 06:48:17;;;;;;;4.20;0.70;;;17.70;99.90;;;;;;5034780;28;20235;-78
2021/07/07 06:50:44;;;;;;;6.47;1.10;;;18.30;98.50;;;;;;5036029;28;20171;-78
2021/07/07 06:53:10;;;;;;;4.23;0.77;;;18.60;98.40;;;;;;5034674;28;20686;-79
2021/07/07 06:55:36;;;;;;;1.33;0.40;;;19.30;50.00;;;;;;5036061;28;20427;-79
2021/07/07 06:58:01;;;;;;;2.63;0.60;;;19.80;1.00;;;;;;5035540;28;20638;-78
2021/07/07 07:00:27;;;;;;;1.93;0.40;;;19.20;1.00;;;;;;5035772;28;20539;-79
2021/07/07 07:02:52;;;;;;;0.97;0.40;;;18.90;33.50;;;;;;5035768;28;20181;-78
2021/07/07 07:05:20;;;;;;;2.60;0.80;;;18.40;67.30;;;;;;5035773;28;20656;-80
2021/07/07 07:07:46;;;;;;;3.13;0.93;;;19.50;54.20;;;;;;5035695;28;20277;-81
2021/07/07 07:10:13;;;;;;;1.80;0.40;;;19.20;1.00;;;;;;5035663;28;20422;-81
2021/07/07 07:12:40;;;;;;;3.23;0.70;;;18.80;67.70;;;;;;5035199;28;20502;-80
2021/07/07 07:15:08;;;;;;;1.60;0.50;;;18.70;33.70;;;;;;5032886;28;20560;-82
2021/07/07 07:17:34;;;;;;;3.07;0.43;;;18.70;77.70;;;;;;5035563;28;20418;-82
2021/07/07 07:20:00;;;;;;;5.07;0.83;;;18.50;65.50;;;;;;5034282;28;20421;-78
2021/07/07 07:22:26;;;;;;;1.97;0.73;;;20.00;1.00;;;;;;5035471;28;20651;-78
2021/07/07 07:24:52;;;;;;;1.13;0.43;;;22.40;99.90;;;;;;5035299;28;20419;-78
2021/07/07 07:27:18;;;;;;;1.87;0.90;;;22.00;1.00;;;;;;5034717;28;20589;-79
2021/07/07 07:29:45;;;;;;;1.13;0.60;;;20.50;1.00;;;;;;5035333;28;20532;-80
2021/07/07 07:32:11;;;;;;;2.70;0.47;;;19.60;1.00;;;;;;5035235;28;20411;-79
2021/07/07 07:34:37;;;;;;;1.67;0.40;;;21.30;1.00;;;;;;5035162;28;20806;-78
2021/07/07 07:37:04;;;;;;;2.80;0.53;;;23.00;99.90;;;;;;5035188;28;20168;-78
2021/07/07 07:39:41;;;;;;;3.50;0.70;;;25.10;99.90;;;;;;5033858;28;20546;-79
2021/07/07 07:42:10;;;;;;;1.53;0.30;;;25.30;99.90;;;;;;5034813;28;20420;-79
2021/07/07 07:44:37;;;;;;;2.43;0.40;;;25.60;27.60;;;;;;5035068;28;20487;-78
2021/07/07 07:47:03;;;;;;;1.03;0.33;;;27.40;1.00;;;;;;5035039;28;20975;-81
2021/07/07 07:49:29;;;;;;;7.00;1.90;;;25.90;99.90;;;;;;5034908;28;20422;-79
2021/07/07 07:51:54;;;;;;;1.70;0.70;;;23.10;1.00;;;;;;5033596;28;20425;-81
2021/07/07 07:54:20;;;;;;;1.00;0.37;;;22.40;25.60;;;;;;5034857;28;20216;-80
2021/07/07 07:56:45;;;;;;;1.73;0.80;;;25.40;1.00;;;;;;5034513;28;20296;-79
2021/07/07 07:59:11;;;;;;;4.47;0.70;;;26.90;1.00;;;;;;5033538;28;20273;-79
2021/07/07 08:01:37;;;;;;;2.30;0.40;;;27.60;99.90;;;;;;5033460;28;20178;-79
2021/07/07 08:04:04;;;;;;;2.00;0.43;;;27.20;99.90;;;;;;5034640;28;20174;-80
2021/07/07 08:06:31;;;;;;;2.00;0.57;;;27.80;99.90;;;;;;5034607;28;20174;-79
2021/07/07 08:08:58;;;;;;;2.37;0.50;;;27.30;99.90;;;;;;5033361;28;20431;-79
2021/07/07 08:11:24;;;;;;;5.00;0.60;;;27.80;99.90;;;;;;5033255;28;20509;-79
2021/07/07 08:13:50;;;;;;;2.37;0.40;;;28.30;99.90;;;;;;5034158;28;20500;-79
2021/07/07 08:16:15;;;;;;;1.33;0.40;;;27.40;99.90;;;;;;5034392;28;20465;-80
2021/07/07 08:18:41;;;;;;;1.50;0.30;;;27.80;99.90;;;;;;5034471;28;20511;-79
2021/07/07 08:21:07;;;;;;;3.17;0.30;;;28.20;99.90;;;;;;5034304;28;20217;-79
2021/07/07 08:23:33;;;;;;;1.80;0.50;;;28.20;99.90;;;;;;5034298;28;20178;-79
2021/07/07 08:25:59;;;;;;;1.80;0.30;;;29.30;99.90;;;;;;5034082;28;20597;-79
2021/07/07 08:28:25;;;;;;;1.90;0.57;;;28.60;99.90;;;;;;5033963;28;20452;-80
2021/07/07 08:30:51;;;;;;;1.17;0.30;;;28.40;99.90;;;;;;5034201;28;20417;-83
2021/07/07 08:33:17;;;;;;;1.63;0.30;;;28.90;99.90;;;;;;5033915;28;20456;-81
2021/07/07 08:35:43;;;;;;;1.73;0.50;;;29.20;99.90;;;;;;5033949;28;20185;-80
2021/07/07 08:38:09;;;;;;;2.27;0.53;;;29.10;99.90;;;;;;5034000;28;20170;-81
2021/07/07 08:40:35;;;;;;;2.57;0.23;;;29.30;99.90;;;;;;5032728;28;20432;-81
2021/07/07 08:43:01;;;;;;;2.40;0.40;;;29.40;99.90;;;;;;5033586;28;20409;-81
2021/07/07 08:45:27;;;;;;;2.70;0.40;;;29.80;99.90;;;;;;5033849;28;20413;-81
2021/07/07 08:47:52;;;;;;;3.60;0.53;;;29.50;99.90;;;;;;5033699;28;20218;-81
2021/07/07 08:50:22;;;;;;;2.13;0.50;;;29.80;99.90;;;;;;5033820;28;20169;-83
2021/07/07 08:52:48;;;;;;;1.20;0.30;;;29.30;99.90;;;;;;5033829;28;20167;-85
2021/07/07 08:55:16;;;;;;;2.90;0.70;;;29.40;99.90;;;;;;5033728;28;20421;-86
2021/07/07 08:57:42;;;;;;;2.00;0.30;;;29.80;99.90;;;;;;5033332;28;20415;-86
2021/07/07 09:00:32;;;;;;;2.20;0.53;;;29.80;99.90;;;;;;5033581;28;20453;-85
2021/07/07 09:03:04;;;;;;;2.57;0.57;;;30.20;99.90;;;;;;5027438;28;20463;-86
2021/07/07 09:05:29;;;;;;;1.83;0.67;;;29.80;98.30;;;;;;5033545;28;20929;-84
2021/07/07 09:08:05;;;;;;;3.13;0.63;;;29.70;98.70;;;;;;5033472;28;20409;-82
2021/07/07 09:10:32;;;;;;;3.73;0.87;;;30.10;99.90;;;;;;5033486;28;20178;-84
2021/07/07 09:13:17;;;;;;;5.80;0.53;;;30.20;93.30;;;;;;5032947;28;20492;-84
2021/07/07 09:15:43;;;;;;;2.60;0.60;;;29.90;84.40;;;;;;5032122;28;20425;-82
2021/07/07 09:18:21;;;;;;;3.17;0.70;;;29.90;91.40;;;;;;5033364;28;20769;-80
2021/07/07 09:20:47;;;;;;;3.87;0.27;;;30.10;94.20;;;;;;5033421;28;20178;-81
2021/07/07 09:23:15;;;;;;;1.30;0.20;;;30.00;95.40;;;;;;5033247;28;20516;-80
2021/07/07 09:25:55;;;;;;;3.97;0.70;;;30.20;92.90;;;;;;5033306;28;20170;-81
2021/07/07 09:28:23;;;;;;;2.23;0.53;;;30.40;98.70;;;;;;5032760;28;20491;-80
2021/07/07 09:30:50;;;;;;;2.33;0.57;;;30.10;86.50;;;;;;5033215;28;20436;-80
2021/07/07 09:33:17;;;;;;;2.30;0.40;;;29.70;90.50;;;;;;5031864;28;20944;-77
2021/07/07 09:35:43;;;;;;;2.57;0.30;;;29.90;86.40;;;;;;5033005;28;20953;-77
2021/07/07 09:38:10;;;;;;;2.97;0.83;;;30.00;63.40;;;;;;5031945;28;20408;-77
2021/07/07 09:40:41;;;;;;;3.80;0.53;;;29.20;64.50;;;;;;5033059;28;20177;-78
2021/07/07 09:43:07;;;;;;;0.90;0.50;;;29.10;54.90;;;;;;5032698;28;20551;-78
2021/07/07 09:45:33;;;;;;;2.30;0.60;;;27.60;66.50;;;;;;5033032;28;20847;-78
2021/07/07 09:48:00;;;;;;;2.00;0.60;;;28.30;86.90;;;;;;5032972;28;20417;-78
2021/07/07 09:50:25;;;;;;;2.03;0.70;;;29.50;89.80;;;;;;5032924;28;20179;-78
2021/07/07 09:52:52;;;;;;;3.43;0.37;;;29.00;61.30;;;;;;5032992;28;20418;-77
2021/07/07 09:55:18;;;;;;;2.03;1.17;;;28.10;85.50;;;;;;5032977;28;20247;-78
2021/07/07 09:57:45;;;;;;;1.97;0.60;;;29.20;92.60;;;;;;5032576;28;20401;-78
2021/07/07 10:00:16;;;;;;;1.90;0.40;;;28.90;73.50;;;;;;5032949;28;20186;-77
2021/07/07 10:02:43;;;;;;;3.07;0.90;;;26.90;74.40;;;;;;5032799;28;20559;-80
2021/07/07 10:05:12;;;;;;;4.43;1.00;;;27.30;66.50;;;;;;5031441;28;20483;-81
2021/07/07 10:07:38;;;;;;;2.13;0.37;;;27.20;76.10;;;;;;5032816;28;20417;-80
2021/07/07 10:10:05;;;;;;;2.27;0.60;;;28.50;83.50;;;;;;5032804;28;20444;-79
2021/07/07 10:12:31;;;;;;;4.10;0.50;;;29.90;89.50;;;;;;5032437;28;20421;-80
2021/07/07 10:14:57;;;;;;;2.60;0.30;;;30.20;84.20;;;;;;5032730;28;20452;-79
2021/07/07 10:17:23;;;;;;;2.00;0.40;;;30.10;47.90;;;;;;5032674;28;20428;-81
2021/07/07 10:19:49;;;;;;;2.87;0.60;;;30.00;47.70;;;;;;5032728;28;20417;-80
2021/07/07 10:22:16;;;;;;;4.00;0.70;;;29.70;36.50;;;;;;5032773;28;20623;-84
2021/07/07 10:24:42;;;;;;;1.93;0.30;;;29.50;34.30;;;;;;5033197;28;20476;-81
2021/07/07 10:27:09;;;;;;;2.40;0.40;;;30.20;47.40;;;;;;5032021;28;20448;-80
2021/07/07 10:29:36;;;;;;;1.30;0.27;;;30.80;30.70;;;;;;5032582;28;20421;-80
2021/07/07 10:32:05;;;;;;;2.43;0.20;;;31.00;30.50;;;;;;5032580;28;20770;-83
2021/07/07 10:34:31;;;;;;;2.37;0.50;;;31.30;32.50;;;;;;5032623;28;20583;-82
2021/07/07 10:36:58;;;;;;;2.60;0.40;;;31.50;35.80;;;;;;5032547;28;20887;-83
2021/07/07 10:39:25;;;;;;;2.77;0.50;;;31.10;25.20;;;;;;5032500;28;20529;-82
2021/07/07 10:42:03;;;;;;;1.53;0.33;;;30.90;19.80;;;;;;5032229;28;20885;-83
2021/07/07 10:44:35;;;;;;;2.70;0.60;;;30.30;17.00;;;;;;5032327;28;20566;-81
2021/07/07 10:47:11;;;;;;;4.10;0.80;;;30.80;19.70;;;;;;5032319;28;20417;-81
2021/07/07 10:49:38;;;;;;;2.20;0.77;;;31.70;40.50;;;;;;5034767;28;20412;-84
2021/07/07 10:52:05;;;;;;;1.40;0.40;;;31.70;27.80;;;;;;5035951;28;20987;-83
2021/07/07 10:54:33;;;;;;;1.43;0.40;;;31.10;15.00;;;;;;5035977;28;20555;-83
2021/07/07 10:57:00;;;;;;;2.40;0.47;;;31.70;27.40;;;;;;5035611;28;20424;-83
2021/07/07 10:59:44;;;;;;;1.77;0.40;;;32.00;24.60;;;;;;5035858;28;20427;-84
2021/07/07 11:02:19;;;;;;;3.37;0.90;;;30.00;4.70;;;;;;5035790;28;20924;-82
2021/07/07 11:05:03;;;;;;;1.80;0.20;;;30.10;17.50;;;;;;5035774;28;20479;-83
2021/07/07 11:07:31;;;;;;;4.27;0.50;;;30.20;10.00;;;;;;5035757;28;20905;-80
2021/07/07 11:09:57;;;;;;;1.30;0.50;;;30.30;8.00;;;;;;5035677;28;20421;-80
2021/07/07 11:12:35;;;;;;;0.93;0.60;;;30.00;8.60;;;;;;5035357;28;20440;-81
2021/07/07 11:15:05;;;;;;;2.00;0.30;;;29.20;7.60;;;;;;5035608;28;20231;-80
2021/07/07 11:17:43;;;;;;;2.10;0.70;;;28.50;6.80;;;;;;5035571;28;20421;-80
2021/07/07 11:20:10;;;;;;;1.30;0.50;;;28.80;11.40;;;;;;5035589;28;20424;-80
2021/07/07 11:22:37;;;;;;;3.23;0.87;;;29.70;14.30;;;;;;5035441;28;20409;-81
2021/07/07 11:25:11;;;;;;;2.47;0.47;;;30.00;10.20;;;;;;5033989;28;21006;-81
2021/07/07 11:27:38;;;;;;;1.23;0.50;;;29.90;7.70;;;;;;5033618;28;20468;-83
2021/07/07 11:30:07;;;;;;;2.20;0.40;;;29.90;6.80;;;;;;5035192;28;20540;-81
2021/07/07 11:32:37;;;;;;;3.30;0.40;;;30.20;4.20;;;;;;5035256;28;20492;-81
2021/07/07 11:35:06;;;;;;;2.00;0.40;;;31.10;14.70;;;;;;5033996;28;20787;-82
2021/07/07 11:37:33;;;;;;;2.10;0.40;;;31.20;11.80;;;;;;5035255;28;20460;-81
2021/07/07 11:40:04;;;;;;;3.07;0.60;;;30.20;1.00;;;;;;5035183;28;20452;-80
2021/07/07 11:42:30;;;;;;;5.50;0.50;;;30.60;6.90;;;;;;5034719;28;20496;-81
2021/07/07 11:44:56;;;;;;;2.90;0.37;;;31.10;10.00;;;;;;5034907;28;20571;-81
2021/07/07 11:47:32;;;;;;;1.33;0.47;;;30.50;1.00;;;;;;5034992;28;20178;-81
2021/07/07 11:50:06;;;;;;;1.50;0.43;;;30.70;1.00;;;;;;5034880;28;20600;-83
2021/07/07 11:52:31;;;;;;;2.50;0.30;;;29.90;1.00;;;;;;5034623;28;20475;-83
2021/07/07 11:54:59;;;;;;;4.63;0.67;;;30.50;1.00;;;;;;5034845;28;20413;-81
2021/07/07 11:57:25;;;;;;;2.93;0.57;;;30.60;1.00;;;;;;5034447;28;20174;-81
2021/07/07 11:59:52;;;;;;;1.37;0.40;;;30.80;1.00;;;;;;5034291;28;20425;-81
2021/07/07 12:02:19;;;;;;;3.03;0.30;;;30.80;1.00;;;;;;5034494;28;20417;-82
2021/07/07 12:04:46;;;;;;;2.67;0.60;;;30.10;1.00;;;;;;5034463;28;20508;-79
2021/07/07 12:07:12;;;;;;;2.07;0.73;;;30.30;1.00;;;;;;5034579;28;20548;-80
2021/07/07 12:09:37;;;;;;;2.30;0.73;;;30.20;1.00;;;;;;5034476;28;20425;-78
2021/07/07 12:12:07;;;;;;;1.57;0.40;;;29.70;1.00;;;;;;5034201;28;20175;-80
2021/07/07 12:14:38;;;;;;;2.80;0.23;;;30.20;1.00;;;;;;5034481;28;20170;-78
2021/07/07 12:17:04;;;;;;;3.90;0.43;;;30.10;1.00;;;;;;5034354;28;20412;-80
2021/07/07 12:19:31;;;;;;;2.40;0.50;;;30.70;1.00;;;;;;5034370;28;20505;-79
2021/07/07 12:22:07;;;;;;;4.43;0.70;;;30.90;1.00;;;;;;5034289;28;20409;-78
2021/07/07 12:24:35;;;;;;;2.97;0.40;;;30.40;1.00;;;;;;5034224;28;20472;-79
2021/07/07 12:27:13;;;;;;;1.60;0.30;;;30.10;1.00;;;;;;5033520;28;20540;-81
2021/07/07 12:29:42;;;;;;;4.33;0.60;;;30.30;1.00;;;;;;5032843;28;20512;-78
2021/07/07 12:32:13;;;;;;;2.63;0.40;;;31.10;1.00;;;;;;5034037;28;20413;-79
2021/07/07 12:34:49;;;;;;;1.60;0.30;;;30.40;1.00;;;;;;5034069;28;20429;-79
2021/07/07 12:37:16;;;;;;;2.77;0.80;;;30.40;1.00;;;;;;5032725;28;20778;-78
2021/07/07 12:39:53;;;;;;;2.10;0.60;;;30.00;1.00;;;;;;5033934;28;20447;-78
2021/07/07 12:42:37;;;;;;;2.00;0.57;;;29.50;1.00;;;;;;5033666;28;20417;-78
2021/07/07 12:45:12;;;;;;;2.37;0.70;;;29.60;1.00;;;;;;5032613;28;20481;-81
2021/07/07 12:47:38;;;;;;;1.43;0.57;;;29.40;1.00;;;;;;5033941;28;20427;-84